createdAt,value
2017-11-30T00:02:08.362Z,66.41
2017-11-30T00:04:34.693Z,66.41
2017-11-30T00:07:01.122Z,67.14
2017-11-30T00:09:27.553Z,66.58
2017-11-30T00:11:53.938Z,66.92
2017-11-30T00:14:20.431Z,66.92
2017-11-30T00:16:46.797Z,66.76
2017-11-30T00:19:13.186Z,67.23
2017-11-30T00:21:39.601Z,67.77
2017-11-30T00:24:05.981Z,68.08
2017-11-30T00:26:32.490Z,67.75
2017-11-30T00:28:59.019Z,67.77
2017-11-30T00:31:25.457Z,67.80
2017-11-30T00:33:51.934Z,70.27
2017-11-30T00:36:18.402Z,67.90
2017-11-30T00:38:44.821Z,67.45
2017-11-30T00:41:11.450Z,66.98
2017-11-30T00:43:37.963Z,67.51
2017-11-30T00:46:04.391Z,67.49
2017-11-30T00:48:30.855Z,68.11
2017-11-30T00:50:57.319Z,67.86
2017-11-30T00:53:23.686Z,67.32
2017-11-30T00:55:50.072Z,67.49
2017-11-30T00:58:16.457Z,67.59
2017-11-30T01:00:42.785Z,68.17
2017-11-30T01:03:09.166Z,67.82
2017-11-30T01:05:35.573Z,67.70
2017-11-30T01:08:02.017Z,68.12
2017-11-30T01:10:28.435Z,68.58
2017-11-30T01:12:54.962Z,67.83
2017-11-30T01:15:21.310Z,68.19
2017-11-30T01:17:47.710Z,67.90
2017-11-30T01:20:14.088Z,68.18
2017-11-30T01:22:40.499Z,67.70
2017-11-30T01:25:06.893Z,67.23
2017-11-30T01:27:33.338Z,67.43
2017-11-30T01:29:59.671Z,67.88
2017-11-30T01:32:26.019Z,68.11
2017-11-30T01:34:52.457Z,68.03
2017-11-30T01:37:18.850Z,67.87
2017-11-30T01:39:45.194Z,68.12
2017-11-30T01:42:11.659Z,68.53
2017-11-30T01:44:37.978Z,68.32
2017-11-30T01:47:04.317Z,68.54
2017-11-30T01:49:30.728Z,68.16
2017-11-30T01:51:57.073Z,68.14
2017-11-30T01:54:23.463Z,67.87
2017-11-30T01:56:49.944Z,67.84
2017-11-30T01:59:16.453Z,68.04
2017-11-30T02:01:42.842Z,67.87
2017-11-30T02:04:09.310Z,67.81
2017-11-30T02:06:35.714Z,67.79
2017-11-30T02:09:02.162Z,67.47
2017-11-30T02:11:28.605Z,67.71
2017-11-30T02:13:54.949Z,67.84
2017-11-30T02:16:21.313Z,68.00
2017-11-30T02:18:47.669Z,68.11
2017-11-30T02:21:14.038Z,68.35
2017-11-30T02:23:40.547Z,68.25
2017-11-30T02:26:07.048Z,68.13
2017-11-30T02:28:33.638Z,68.18
2017-11-30T02:31:00.128Z,68.38
2017-11-30T02:33:26.685Z,68.41
2017-11-30T02:35:53.142Z,68.55
2017-11-30T02:38:19.606Z,68.11
2017-11-30T02:40:46.113Z,67.83
2017-11-30T02:43:12.612Z,68.24
2017-11-30T02:45:39.086Z,68.24
2017-11-30T02:48:05.625Z,67.76
2017-11-30T02:50:32.121Z,67.13
2017-11-30T02:52:58.658Z,67.37
2017-11-30T02:55:25.192Z,68.07
2017-11-30T02:57:51.624Z,68.76
2017-11-30T03:00:18.033Z,68.76
2017-11-30T03:02:44.449Z,69.19
2017-11-30T03:05:10.857Z,69.70
2017-11-30T03:07:37.463Z,69.69
2017-11-30T03:10:03.941Z,68.37
2017-11-30T03:12:30.357Z,67.97
2017-11-30T03:14:56.738Z,67.47
2017-11-30T03:17:23.173Z,67.46
2017-11-30T03:19:49.547Z,67.17
2017-11-30T03:22:15.935Z,67.39
2017-11-30T03:24:42.386Z,67.76
2017-11-30T03:27:08.738Z,68.09
2017-11-30T03:29:35.123Z,68.50
2017-11-30T03:32:01.584Z,70.66
2017-11-30T03:34:27.959Z,68.72
2017-11-30T03:36:54.391Z,70.51
2017-11-30T03:39:20.806Z,68.70
2017-11-30T03:41:47.186Z,68.92
2017-11-30T03:44:13.639Z,69.68
2017-11-30T03:46:40.060Z,67.08
2017-11-30T03:49:06.506Z,67.11
2017-11-30T03:51:32.883Z,67.35
2017-11-30T03:53:59.262Z,67.13
2017-11-30T03:56:25.658Z,67.44
2017-11-30T03:58:52.034Z,67.43
2017-11-30T04:01:18.550Z,67.75
2017-11-30T04:03:45.038Z,68.11
2017-11-30T04:06:11.421Z,68.30
2017-11-30T04:08:37.830Z,68.11
2017-11-30T04:11:04.221Z,68.04
2017-11-30T04:13:30.538Z,68.18
2017-11-30T04:15:57.017Z,68.03
2017-11-30T04:18:23.426Z,68.42
2017-11-30T04:20:49.802Z,70.60
2017-11-30T04:23:16.246Z,68.74
2017-11-30T04:25:42.594Z,68.23
2017-11-30T04:28:09.902Z,68.23
2017-11-30T04:30:36.549Z,68.14
2017-11-30T04:33:02.952Z,67.87
2017-11-30T04:35:29.376Z,67.86
2017-11-30T04:37:55.756Z,67.63
2017-11-30T04:40:22.113Z,67.61
2017-11-30T04:42:48.562Z,67.99
2017-11-30T04:45:15.049Z,68.37
2017-11-30T04:47:41.410Z,68.58
2017-11-30T04:50:07.782Z,69.00
2017-11-30T04:52:34.162Z,68.47
2017-11-30T04:55:00.585Z,69.96
2017-11-30T04:57:27.034Z,68.56
2017-11-30T04:59:53.533Z,69.75
2017-11-30T05:02:19.878Z,71.81
2017-11-30T05:04:46.319Z,71.20
2017-11-30T05:07:12.792Z,69.47
2017-11-30T05:09:40.303Z,69.21
2017-11-30T05:12:06.718Z,68.84
2017-11-30T05:14:33.122Z,68.87
2017-11-30T05:16:59.497Z,69.71
2017-11-30T05:19:25.984Z,69.65
2017-11-30T05:21:52.388Z,69.36
2017-11-30T05:24:18.849Z,69.91
2017-11-30T05:26:45.492Z,70.86
2017-11-30T05:29:11.922Z,70.63
2017-11-30T05:31:38.271Z,69.71
2017-11-30T05:34:04.609Z,69.51
2017-11-30T05:36:31.016Z,69.85
2017-11-30T05:38:57.346Z,69.79
2017-11-30T05:41:23.701Z,69.87
2017-11-30T05:43:50.098Z,69.62
2017-11-30T05:46:16.426Z,69.18
2017-11-30T05:48:42.774Z,69.26
2017-11-30T05:51:09.184Z,69.63
2017-11-30T05:53:36.590Z,70.01
2017-11-30T05:56:02.942Z,70.92
2017-11-30T05:58:29.302Z,71.40
2017-11-30T06:00:55.659Z,71.28
2017-11-30T06:03:22.017Z,70.96
2017-11-30T06:05:48.403Z,71.02
2017-11-30T06:08:14.768Z,70.87
2017-11-30T06:10:41.125Z,71.15
2017-11-30T06:13:07.525Z,71.30
2017-11-30T06:15:33.957Z,70.74
2017-11-30T06:18:00.310Z,69.25
2017-11-30T06:20:26.725Z,69.05
2017-11-30T06:22:53.042Z,69.50
2017-11-30T06:25:19.680Z,69.18
2017-11-30T06:27:46.322Z,69.86
2017-11-30T06:30:12.651Z,70.08
2017-11-30T06:32:39.001Z,70.31
2017-11-30T06:35:05.417Z,69.47
2017-11-30T06:37:31.834Z,69.69
2017-11-30T06:39:58.161Z,69.09
2017-11-30T06:42:24.569Z,68.95
2017-11-30T06:44:50.911Z,68.91
2017-11-30T06:47:17.254Z,68.81
2017-11-30T06:49:43.610Z,69.87
2017-11-30T06:52:09.958Z,69.00
2017-11-30T06:54:36.326Z,69.45
2017-11-30T06:57:02.972Z,69.69
2017-11-30T06:59:29.306Z,68.44
2017-11-30T07:01:55.633Z,68.40
2017-11-30T07:04:22.101Z,68.70
2017-11-30T07:06:48.470Z,69.07
2017-11-30T07:09:14.846Z,69.15
2017-11-30T07:11:41.226Z,69.50
2017-11-30T07:14:07.602Z,69.69
2017-11-30T07:16:33.982Z,70.18
2017-11-30T07:19:00.401Z,70.34
2017-11-30T07:21:26.731Z,70.56
2017-11-30T07:23:53.081Z,69.37
2017-11-30T07:26:19.526Z,69.20
2017-11-30T07:28:45.897Z,70.37
2017-11-30T07:31:12.226Z,68.97
2017-11-30T07:33:38.602Z,69.00
2017-11-30T07:36:04.948Z,69.18
2017-11-30T07:38:31.294Z,69.38
2017-11-30T07:40:57.664Z,69.63
2017-11-30T07:43:24.009Z,69.77
2017-11-30T07:45:50.350Z,70.03
2017-11-30T07:48:16.750Z,69.85
2017-11-30T07:50:44.659Z,70.28
2017-11-30T07:53:11.767Z,70.51
2017-11-30T07:55:38.184Z,70.37
2017-11-30T07:58:04.578Z,70.23
2017-11-30T08:00:30.939Z,69.68
2017-11-30T08:02:57.317Z,69.78
2017-11-30T08:05:23.710Z,69.78
2017-11-30T08:07:50.083Z,69.92
2017-11-30T08:10:16.642Z,70.42
2017-11-30T08:12:43.034Z,70.16
2017-11-30T08:15:09.566Z,70.24
2017-11-30T08:17:37.291Z,69.87
2017-11-30T08:20:03.685Z,69.44
2017-11-30T08:22:30.129Z,69.47
2017-11-30T08:24:56.530Z,69.36
2017-11-30T08:27:22.970Z,69.47
2017-11-30T08:29:49.389Z,69.72
2017-11-30T08:32:15.838Z,69.82
2017-11-30T08:34:42.234Z,69.71
2017-11-30T08:37:08.602Z,69.67
2017-11-30T08:39:35.036Z,69.72
2017-11-30T08:42:01.429Z,69.83
2017-11-30T08:44:27.925Z,69.58
2017-11-30T08:46:54.432Z,70.07
2017-11-30T08:49:20.938Z,70.66
2017-11-30T08:51:47.370Z,70.39
2017-11-30T08:54:13.829Z,70.87
2017-11-30T08:56:40.319Z,70.36
2017-11-30T08:59:06.698Z,70.71
2017-11-30T09:01:33.126Z,72.10
2017-11-30T09:03:59.566Z,77.78
2017-11-30T09:06:25.933Z,77.15
2017-11-30T09:08:52.332Z,79.04
2017-11-30T09:11:18.665Z,80.53
2017-11-30T09:13:45.053Z,79.98
2017-11-30T09:16:11.618Z,80.38
2017-11-30T09:18:38.058Z,79.71
2017-11-30T09:21:04.434Z,79.71
2017-11-30T09:23:30.798Z,79.73
2017-11-30T09:25:57.230Z,79.47
2017-11-30T09:28:23.634Z,79.50
2017-11-30T09:30:50.115Z,79.20
2017-11-30T09:33:16.635Z,78.35
2017-11-30T09:35:43.037Z,78.32
2017-11-30T09:38:09.609Z,77.85
2017-11-30T09:40:35.969Z,77.65
2017-11-30T09:43:02.325Z,76.96
2017-11-30T09:45:28.892Z,75.74
2017-11-30T09:47:55.241Z,76.78
2017-11-30T09:50:21.693Z,75.64
2017-11-30T09:52:48.208Z,75.80
2017-11-30T09:55:15.223Z,76.64
2017-11-30T09:57:41.835Z,77.01
2017-11-30T10:00:08.289Z,75.17
2017-11-30T10:02:34.881Z,76.00
2017-11-30T10:05:01.300Z,75.69
2017-11-30T10:07:27.710Z,74.30
2017-11-30T10:09:54.086Z,70.78
2017-11-30T10:12:20.470Z,73.73
2017-11-30T10:14:46.867Z,75.91
2017-11-30T10:17:13.558Z,70.87
2017-11-30T10:19:39.914Z,74.21
2017-11-30T10:22:06.343Z,75.94
2017-11-30T10:24:32.747Z,74.92
2017-11-30T10:26:59.124Z,74.72
2017-11-30T10:29:25.509Z,74.93
2017-11-30T10:31:51.878Z,74.28
2017-11-30T10:34:18.235Z,73.21
2017-11-30T10:36:44.642Z,74.42
2017-11-30T10:39:11.030Z,75.78
2017-11-30T10:41:37.365Z,75.03
2017-11-30T10:44:03.795Z,73.19
2017-11-30T10:46:30.143Z,74.38
2017-11-30T10:48:56.494Z,73.29
2017-11-30T10:51:22.888Z,74.61
2017-11-30T10:53:49.284Z,76.21
2017-11-30T10:56:15.785Z,76.27
2017-11-30T10:58:42.207Z,77.07
2017-11-30T11:01:08.567Z,76.11
2017-11-30T11:03:35.022Z,75.47
2017-11-30T11:06:01.457Z,75.44
2017-11-30T11:08:27.801Z,71.15
2017-11-30T11:10:54.298Z,76.11
2017-11-30T11:13:20.702Z,74.82
2017-11-30T11:15:47.217Z,76.13
2017-11-30T11:18:13.622Z,77.60
2017-11-30T11:20:40.030Z,74.01
2017-11-30T11:23:06.395Z,75.87
2017-11-30T11:25:32.781Z,74.35
2017-11-30T11:27:59.178Z,75.53
2017-11-30T11:30:25.584Z,74.70
2017-11-30T11:32:52.282Z,71.32
2017-11-30T11:35:18.779Z,75.87
2017-11-30T11:37:45.251Z,73.44
2017-11-30T11:40:11.783Z,73.40
2017-11-30T11:42:38.228Z,73.15
2017-11-30T11:45:04.622Z,74.81
2017-11-30T11:47:31.030Z,72.25
2017-11-30T11:49:57.438Z,73.80
2017-11-30T11:52:23.996Z,74.01
2017-11-30T11:54:50.428Z,74.10
2017-11-30T11:57:16.938Z,75.81
2017-11-30T11:59:43.294Z,73.84
2017-11-30T12:02:09.672Z,75.28
2017-11-30T12:04:36.062Z,73.50
2017-11-30T12:07:02.424Z,73.91
2017-11-30T12:09:28.768Z,73.90
2017-11-30T12:11:55.186Z,75.22
2017-11-30T12:14:21.594Z,73.33
2017-11-30T12:16:47.970Z,75.86
2017-11-30T12:19:14.370Z,74.04
2017-11-30T12:21:40.761Z,75.18
2017-11-30T12:24:07.206Z,74.02
2017-11-30T12:26:33.798Z,76.42
2017-11-30T12:29:00.208Z,75.50
2017-11-30T12:31:26.622Z,76.79
2017-11-30T12:33:53.037Z,71.20
2017-11-30T12:36:19.424Z,73.53
2017-11-30T12:38:45.806Z,75.20
2017-11-30T12:41:12.227Z,73.98
2017-11-30T12:43:38.594Z,76.39
2017-11-30T12:46:05.061Z,73.41
2017-11-30T12:48:31.464Z,76.07
2017-11-30T12:50:57.833Z,72.95
2017-11-30T12:53:24.197Z,72.86
2017-11-30T12:55:50.721Z,74.08
2017-11-30T12:58:17.097Z,70.58
2017-11-30T13:00:43.500Z,73.03
2017-11-30T13:03:10.852Z,78.47
2017-11-30T13:05:37.409Z,76.46
2017-11-30T13:08:03.809Z,78.45
2017-11-30T13:10:30.200Z,77.28
2017-11-30T13:12:56.602Z,77.19
2017-11-30T13:15:23.054Z,73.07
2017-11-30T13:17:49.686Z,75.90
2017-11-30T13:20:16.157Z,76.78
2017-11-30T13:22:42.513Z,76.14
2017-11-30T13:25:08.945Z,76.26
2017-11-30T13:27:35.297Z,77.13
2017-11-30T13:30:01.685Z,75.95
2017-11-30T13:32:28.132Z,67.70
2017-11-30T13:34:54.523Z,74.38
2017-11-30T13:37:20.909Z,74.11
2017-11-30T13:39:47.341Z,75.53
2017-11-30T13:42:13.693Z,75.31
2017-11-30T13:44:40.139Z,76.84
2017-11-30T13:47:06.651Z,75.29
2017-11-30T13:49:33.009Z,71.52
2017-11-30T13:51:59.337Z,75.03
2017-11-30T13:54:25.732Z,79.73
2017-11-30T13:56:52.072Z,80.24
2017-11-30T13:59:18.527Z,77.91
2017-11-30T14:01:45.063Z,78.61
2017-11-30T14:04:11.552Z,78.45
2017-11-30T14:06:37.904Z,77.16
2017-11-30T14:09:04.324Z,79.14
2017-11-30T14:11:30.664Z,79.49
2017-11-30T14:13:57.018Z,78.52
2017-11-30T14:16:23.384Z,76.08
2017-11-30T14:18:49.794Z,78.75
2017-11-30T14:21:16.394Z,74.83
2017-11-30T14:23:42.834Z,76.28
2017-11-30T14:26:09.277Z,72.67
2017-11-30T14:28:35.725Z,74.59
2017-11-30T14:31:02.136Z,76.07
2017-11-30T14:33:28.753Z,76.92
2017-11-30T14:35:55.108Z,75.57
2017-11-30T14:38:21.521Z,76.76
2017-11-30T14:40:47.872Z,77.57
2017-11-30T14:43:14.233Z,77.44
2017-11-30T14:45:40.627Z,79.97
2017-11-30T14:48:06.985Z,77.91
2017-11-30T14:50:33.371Z,78.43
2017-11-30T14:52:59.750Z,78.14
2017-11-30T14:55:26.201Z,78.78
2017-11-30T14:57:52.618Z,78.97
2017-11-30T15:00:18.985Z,76.31
2017-11-30T15:02:45.401Z,77.24
2017-11-30T15:05:11.746Z,77.58
2017-11-30T15:07:38.188Z,76.90
2017-11-30T15:10:04.549Z,76.94
2017-11-30T15:12:30.916Z,77.47
2017-11-30T15:14:58.667Z,76.76
2017-11-30T15:17:25.018Z,72.44
2017-11-30T15:19:51.476Z,76.86
2017-11-30T15:22:18.088Z,77.06
2017-11-30T15:24:44.567Z,75.84
2017-11-30T15:27:10.926Z,77.18
2017-11-30T15:29:37.383Z,77.96
2017-11-30T15:32:03.711Z,78.97
2017-11-30T15:34:30.296Z,78.17
2017-11-30T15:36:56.728Z,77.39
2017-11-30T15:39:23.093Z,78.95
2017-11-30T15:41:49.435Z,71.66
2017-11-30T15:44:15.847Z,78.11
2017-11-30T15:46:42.268Z,77.50
2017-11-30T15:49:08.641Z,78.53
2017-11-30T15:51:35.029Z,79.72
2017-11-30T15:54:01.383Z,74.63
2017-11-30T15:56:27.764Z,78.27
2017-11-30T15:58:54.253Z,77.27
2017-11-30T16:01:20.657Z,77.99
2017-11-30T16:03:47.012Z,77.85
2017-11-30T16:06:13.402Z,78.60
2017-11-30T16:08:39.776Z,79.52
2017-11-30T16:11:06.130Z,79.59
2017-11-30T16:13:32.559Z,78.46
2017-11-30T16:15:58.916Z,79.35
2017-11-30T16:18:25.253Z,79.15
2017-11-30T16:20:51.617Z,79.57
2017-11-30T16:23:17.985Z,75.65
2017-11-30T16:25:44.400Z,77.50
2017-11-30T16:28:10.936Z,78.59
2017-11-30T16:30:37.327Z,79.83
2017-11-30T16:33:03.705Z,79.08
2017-11-30T16:35:30.203Z,79.13
2017-11-30T16:37:56.588Z,77.59
2017-11-30T16:40:22.954Z,80.33
2017-11-30T16:42:49.392Z,80.77
2017-11-30T16:45:16.086Z,76.81
2017-11-30T16:47:42.575Z,80.14
2017-11-30T16:50:08.984Z,80.55
2017-11-30T16:52:35.387Z,80.50
2017-11-30T16:55:01.805Z,76.79
2017-11-30T16:57:28.259Z,78.96
2017-11-30T16:59:54.591Z,79.46
2017-11-30T17:02:20.948Z,80.14
2017-11-30T17:04:47.322Z,79.19
2017-11-30T17:07:13.716Z,80.17
2017-11-30T17:09:40.201Z,79.25
2017-11-30T17:12:06.632Z,79.16
2017-11-30T17:14:33.269Z,78.76
2017-11-30T17:16:59.849Z,78.29
2017-11-30T17:19:26.283Z,79.76
2017-11-30T17:21:52.692Z,79.85
2017-11-30T17:24:19.108Z,78.56
2017-11-30T17:26:45.716Z,74.35
2017-11-30T17:29:12.202Z,76.08
2017-11-30T17:31:38.615Z,78.97
2017-11-30T17:34:04.995Z,78.30
2017-11-30T17:36:31.421Z,77.30
2017-11-30T17:38:57.812Z,76.01
2017-11-30T17:41:24.573Z,77.89
2017-11-30T17:43:51.424Z,76.72
2017-11-30T17:46:21.859Z,77.56
2017-11-30T17:48:49.525Z,76.60
2017-11-30T17:51:16.630Z,77.94
2017-11-30T17:53:45.804Z,75.09
2017-11-30T17:56:15.985Z,75.26
2017-11-30T17:58:43.800Z,74.95
2017-11-30T18:01:12.946Z,76.22
2017-11-30T18:03:41.318Z,78.16
2017-11-30T18:06:09.601Z,77.86
2017-11-30T18:08:38.515Z,75.16
2017-11-30T18:11:07.664Z,77.46
2017-11-30T18:13:40.847Z,78.43
2017-11-30T18:16:10.494Z,75.94
2017-11-30T18:18:44.297Z,73.08
2017-11-30T18:21:15.498Z,75.80
2017-11-30T18:23:46.391Z,73.64
2017-11-30T18:26:15.574Z,75.65
2017-11-30T18:28:45.029Z,77.10
2017-11-30T18:31:13.568Z,76.85
2017-11-30T18:33:46.731Z,74.82
2017-11-30T18:36:15.737Z,74.84
2017-11-30T18:38:46.039Z,74.28
2017-11-30T18:41:13.072Z,76.04
2017-11-30T18:43:41.215Z,77.33
2017-11-30T18:46:08.768Z,76.03
2017-11-30T18:48:36.444Z,72.12
2017-11-30T18:51:04.084Z,77.05
2017-11-30T18:53:34.378Z,73.96
2017-11-30T18:56:01.162Z,75.02
2017-11-30T18:58:27.611Z,74.80
2017-11-30T19:00:54.047Z,76.25
2017-11-30T19:03:20.455Z,76.05
2017-11-30T19:05:46.889Z,75.79
2017-11-30T19:08:13.272Z,74.04
2017-11-30T19:10:39.623Z,74.53
2017-11-30T19:13:06.010Z,74.68
2017-11-30T19:15:32.392Z,74.55
2017-11-30T19:17:58.755Z,75.15
2017-11-30T19:20:25.198Z,74.89
2017-11-30T19:22:51.588Z,73.87
2017-11-30T19:25:17.932Z,75.89
2017-11-30T19:27:44.428Z,73.79
2017-11-30T19:30:10.923Z,75.03
2017-11-30T19:32:37.320Z,75.12
2017-11-30T19:35:03.660Z,73.61
2017-11-30T19:37:30.259Z,74.61
2017-11-30T19:39:57.356Z,75.25
2017-11-30T19:42:24.128Z,73.76
2017-11-30T19:44:51.496Z,74.62
2017-11-30T19:47:18.149Z,74.18
2017-11-30T19:49:44.488Z,74.27
2017-11-30T19:52:10.914Z,74.75
2017-11-30T19:54:37.305Z,72.98
2017-11-30T19:57:03.655Z,75.40
2017-11-30T19:59:30.049Z,73.68
2017-11-30T20:01:56.401Z,73.96
2017-11-30T20:04:22.766Z,74.06
2017-11-30T20:06:49.204Z,73.95
2017-11-30T20:09:16.260Z,74.20
2017-11-30T20:11:42.648Z,71.53
2017-11-30T20:14:09.080Z,74.18
2017-11-30T20:16:35.428Z,74.48
2017-11-30T20:19:01.883Z,71.65
2017-11-30T20:21:28.311Z,72.41
2017-11-30T20:23:54.777Z,72.78
2017-11-30T20:26:21.112Z,71.43
2017-11-30T20:28:47.494Z,73.74
2017-11-30T20:31:13.860Z,72.28
2017-11-30T20:33:40.272Z,73.44
2017-11-30T20:36:06.633Z,71.22
2017-11-30T20:38:32.953Z,71.62
2017-11-30T20:40:59.316Z,71.42
2017-11-30T20:43:25.681Z,72.32
2017-11-30T20:45:52.046Z,70.55
2017-11-30T20:48:18.553Z,71.09
2017-11-30T20:50:44.953Z,72.27
2017-11-30T20:53:11.336Z,73.00
2017-11-30T20:55:38.287Z,73.38
2017-11-30T20:58:04.904Z,71.49
2017-11-30T21:00:31.233Z,74.58
2017-11-30T21:02:57.607Z,74.08
2017-11-30T21:05:24.040Z,73.46
2017-11-30T21:07:50.389Z,75.11
2017-11-30T21:10:16.724Z,74.48
2017-11-30T21:12:43.172Z,75.08
2017-11-30T21:15:09.545Z,74.22
2017-11-30T21:17:35.928Z,73.30
2017-11-30T21:20:02.377Z,73.84
2017-11-30T21:22:28.807Z,72.66
2017-11-30T21:24:55.200Z,74.74
2017-11-30T21:27:21.614Z,75.35
2017-11-30T21:29:49.073Z,75.07
2017-11-30T21:32:15.423Z,72.90
2017-11-30T21:34:41.791Z,72.04
2017-11-30T21:37:08.162Z,75.07
2017-11-30T21:39:34.562Z,74.61
2017-11-30T21:42:01.233Z,75.37
2017-11-30T21:44:27.566Z,74.25
2017-11-30T21:46:54.022Z,74.78
2017-11-30T21:49:20.406Z,75.04
2017-11-30T21:51:46.952Z,73.70
2017-11-30T21:54:13.330Z,72.79
2017-11-30T21:56:39.760Z,72.27
2017-11-30T21:59:06.104Z,72.94
2017-11-30T22:01:32.456Z,73.59
2017-11-30T22:03:58.953Z,72.85
2017-11-30T22:06:25.283Z,71.66
2017-11-30T22:08:51.697Z,71.87
2017-11-30T22:11:18.080Z,72.68
2017-11-30T22:13:44.424Z,72.85
2017-11-30T22:16:10.948Z,72.60
2017-11-30T22:18:37.400Z,71.87
2017-11-30T22:21:03.808Z,71.35
2017-11-30T22:23:30.159Z,69.62
2017-11-30T22:25:56.622Z,70.87
2017-11-30T22:28:23.022Z,71.73
2017-11-30T22:30:49.392Z,71.55
2017-11-30T22:33:15.853Z,71.91
2017-11-30T22:35:42.224Z,73.53
2017-11-30T22:38:08.580Z,70.98
2017-11-30T22:40:35.020Z,73.15
2017-11-30T22:43:01.419Z,73.47
2017-11-30T22:45:27.784Z,74.63
2017-11-30T22:47:54.191Z,74.04
2017-11-30T22:50:20.569Z,73.83
2017-11-30T22:52:46.991Z,73.41
2017-11-30T22:55:13.412Z,72.35
2017-11-30T22:57:39.803Z,72.11
2017-11-30T23:00:06.157Z,73.32
2017-11-30T23:02:32.738Z,72.54
2017-11-30T23:04:59.149Z,71.28
2017-11-30T23:07:25.489Z,71.17
2017-11-30T23:09:51.890Z,72.31
2017-11-30T23:12:18.244Z,71.69
2017-11-30T23:14:44.662Z,72.16
2017-11-30T23:17:11.012Z,73.94
2017-11-30T23:19:37.442Z,72.79
2017-11-30T23:22:03.816Z,72.53
2017-11-30T23:24:30.238Z,71.24
2017-11-30T23:26:56.612Z,73.37
2017-11-30T23:29:22.987Z,74.94
2017-11-30T23:31:49.395Z,73.23
2017-11-30T23:34:15.796Z,73.16
2017-11-30T23:36:42.172Z,73.06
2017-11-30T23:39:08.624Z,75.04
2017-11-30T23:41:35.056Z,72.93
2017-11-30T23:44:01.441Z,73.86
2017-11-30T23:46:27.922Z,74.88
2017-11-30T23:48:54.268Z,72.53
2017-11-30T23:51:20.617Z,73.38
2017-11-30T23:53:46.987Z,71.70
2017-11-30T23:56:13.336Z,73.35
2017-11-30T23:58:39.660Z,72.16
